createdAt,value
2017-06-14T00:00:04.157Z,999.51
2017-06-14T00:01:14.549Z,999.51
2017-06-14T00:02:24.889Z,999.49
2017-06-14T00:03:34.938Z,999.53
2017-06-14T00:04:45.298Z,999.55
2017-06-14T00:05:55.646Z,999.56
2017-06-14T00:07:05.728Z,999.59
2017-06-14T00:08:15.761Z,999.62
2017-06-14T00:09:26.099Z,999.61
2017-06-14T00:10:36.440Z,999.57
2017-06-14T00:11:46.170Z,999.59
2017-06-14T00:12:56.523Z,999.6
2017-06-14T00:14:06.879Z,999.63
2017-06-14T00:15:16.899Z,999.59
2017-06-14T00:16:27.079Z,999.67
2017-06-14T00:17:37.126Z,999.63
2017-06-14T00:18:47.527Z,999.66
2017-06-14T00:19:57.866Z,999.69
2017-06-14T00:21:08.240Z,999.69
2017-06-14T00:22:18.596Z,999.73
2017-06-14T00:23:28.968Z,999.71
2017-06-14T00:24:39.315Z,999.72
2017-06-14T00:25:49.665Z,999.72
2017-06-14T00:27:00.014Z,999.7
2017-06-14T00:28:10.357Z,999.71
2017-06-14T00:29:20.716Z,999.74
2017-06-14T00:30:30.763Z,999.73
2017-06-14T00:31:41.112Z,999.74
2017-06-14T00:32:51.456Z,999.73
2017-06-14T00:34:01.815Z,999.73
2017-06-14T00:35:11.878Z,999.73
2017-06-14T00:36:21.963Z,999.67
2017-06-14T00:37:32.318Z,999.7
2017-06-14T00:38:42.661Z,999.71
2017-06-14T00:39:53.008Z,999.71
2017-06-14T00:41:03.067Z,999.69
2017-06-14T00:42:13.157Z,999.7
2017-06-14T00:43:23.507Z,999.73
2017-06-14T00:44:33.849Z,999.73
2017-06-14T00:45:44.205Z,999.73
2017-06-14T00:46:54.255Z,999.74
2017-06-14T00:48:04.668Z,999.73
2017-06-14T00:49:15.027Z,999.7
2017-06-14T00:50:25.375Z,999.67
2017-06-14T00:51:35.727Z,999.73
2017-06-14T00:52:45.468Z,999.72
2017-06-14T00:53:55.813Z,999.72
2017-06-14T00:55:05.846Z,999.74
2017-06-14T00:56:15.875Z,999.78
2017-06-14T00:57:26.225Z,999.72
2017-06-14T00:58:36.568Z,999.74
2017-06-14T00:59:46.975Z,999.8
2017-06-14T01:00:57.008Z,999.76
2017-06-14T01:02:07.366Z,999.79
2017-06-14T01:03:17.713Z,999.75
2017-06-14T01:04:28.095Z,999.8
2017-06-14T01:05:38.487Z,999.76
2017-06-14T01:06:48.515Z,999.75
2017-06-14T01:07:58.876Z,999.75
2017-06-14T01:09:09.224Z,999.78
2017-06-14T01:10:19.268Z,999.73
2017-06-14T01:11:29.336Z,999.72
2017-06-14T01:12:39.052Z,999.68
2017-06-14T01:13:49.081Z,999.69
2017-06-14T01:14:59.445Z,999.68
2017-06-14T01:16:09.798Z,999.65
2017-06-14T01:17:19.963Z,999.69
2017-06-14T01:18:30.306Z,999.71
2017-06-14T01:19:40.642Z,999.72
2017-06-14T01:20:50.994Z,999.77
2017-06-14T01:22:01.014Z,999.74
2017-06-14T01:23:11.398Z,999.73
2017-06-14T01:24:21.436Z,999.72
2017-06-14T01:25:31.777Z,999.74
2017-06-14T01:26:41.818Z,999.74
2017-06-14T01:27:52.167Z,999.75
2017-06-14T01:29:02.516Z,999.71
2017-06-14T01:30:12.859Z,999.7
2017-06-14T01:31:22.900Z,999.71
2017-06-14T01:32:33.242Z,999.66
2017-06-14T01:33:43.593Z,999.67
2017-06-14T01:34:53.665Z,999.61
2017-06-14T01:36:03.707Z,999.65
2017-06-14T01:37:13.732Z,999.67
2017-06-14T01:38:23.759Z,999.64
2017-06-14T01:39:33.477Z,999.59
2017-06-14T01:40:43.534Z,999.59
2017-06-14T01:41:53.871Z,999.59
2017-06-14T01:43:03.899Z,999.61
2017-06-14T01:44:14.235Z,999.6
2017-06-14T01:45:24.575Z,999.61
2017-06-14T01:46:34.984Z,999.63
2017-06-14T01:47:45.341Z,999.7
2017-06-14T01:48:55.376Z,999.68
2017-06-14T01:50:05.729Z,999.68
2017-06-14T01:51:16.115Z,999.71
2017-06-14T01:52:26.492Z,999.72
2017-06-14T01:53:36.531Z,999.74
2017-06-14T01:54:46.875Z,999.7
2017-06-14T01:55:57.228Z,999.73
2017-06-14T01:57:07.260Z,999.71
2017-06-14T01:58:17.660Z,999.71
2017-06-14T01:59:27.997Z,999.7
2017-06-14T02:00:38.030Z,999.68
2017-06-14T02:01:48.369Z,999.7
2017-06-14T02:02:58.712Z,999.69
2017-06-14T02:04:09.051Z,999.7
2017-06-14T02:05:18.781Z,999.69
2017-06-14T02:06:28.801Z,999.67
2017-06-14T02:07:38.824Z,999.67
2017-06-14T02:08:49.172Z,999.72
2017-06-14T02:09:59.262Z,999.74
2017-06-14T02:11:09.615Z,999.79
2017-06-14T02:12:19.651Z,999.84
2017-06-14T02:13:29.677Z,999.78
2017-06-14T02:14:40.021Z,999.76
2017-06-14T02:15:50.393Z,999.8
2017-06-14T02:17:00.728Z,999.84
2017-06-14T02:18:11.064Z,999.85
2017-06-14T02:19:21.423Z,999.84
2017-06-14T02:20:31.763Z,999.81
2017-06-14T02:21:41.521Z,999.86
2017-06-14T02:22:51.544Z,999.8
2017-06-14T02:24:01.574Z,999.81
2017-06-14T02:25:11.598Z,999.79
2017-06-14T02:26:21.945Z,999.79
2017-06-14T02:27:32.338Z,999.75
2017-06-14T02:28:42.064Z,999.78
2017-06-14T02:29:52.107Z,999.81
2017-06-14T02:31:02.441Z,999.8
2017-06-14T02:32:12.478Z,999.8
2017-06-14T02:33:22.865Z,999.79
2017-06-14T02:34:33.201Z,999.84
2017-06-14T02:35:43.541Z,999.86
2017-06-14T02:36:53.878Z,999.87
2017-06-14T02:38:03.915Z,999.88
2017-06-14T02:39:14.253Z,999.83
2017-06-14T02:40:24.595Z,999.86
2017-06-14T02:41:34.936Z,999.84
2017-06-14T02:42:45.283Z,999.88
2017-06-14T02:43:55.008Z,999.91
2017-06-14T02:45:05.407Z,999.94
2017-06-14T02:46:15.444Z,1000
2017-06-14T02:47:25.785Z,999.97
2017-06-14T02:48:35.827Z,1000
2017-06-14T02:49:45.553Z,999.99
2017-06-14T02:50:55.952Z,999.94
2017-06-14T02:52:06.297Z,1000.02
2017-06-14T02:53:16.635Z,999.98
2017-06-14T02:54:26.968Z,999.98
2017-06-14T02:55:37.317Z,1000.05
2017-06-14T02:56:47.351Z,1000.03
2017-06-14T02:57:57.702Z,1000.01
2017-06-14T02:59:07.747Z,1000.02
2017-06-14T03:00:18.105Z,1000.04
2017-06-14T03:01:28.457Z,1000.06
2017-06-14T03:32:44.340Z,1000.12
2017-06-14T03:33:54.362Z,1000.14
2017-06-14T03:35:04.695Z,1000.15
2017-06-14T03:36:15.078Z,1000.19
2017-06-14T03:37:25.120Z,1000.16
2017-06-14T03:38:35.467Z,1000.18
2017-06-14T03:39:45.820Z,1000.13
2017-06-14T03:40:55.868Z,1000.18
2017-06-14T03:42:05.893Z,1000.24
2017-06-14T03:43:16.283Z,1000.24
2017-06-14T03:44:26.678Z,1000.23
2017-06-14T03:45:37.033Z,1000.28
2017-06-14T03:46:46.772Z,1000.26
2017-06-14T03:47:57.108Z,1000.28
2017-06-14T03:49:07.460Z,1000.27
2017-06-14T03:50:17.867Z,1000.34
2017-06-14T03:51:28.223Z,1000.38
2017-06-14T03:52:38.558Z,1000.39
2017-06-14T03:53:48.905Z,1000.39
2017-06-14T03:54:58.934Z,1000.41
2017-06-14T03:56:09.393Z,1000.43
2017-06-14T03:57:19.420Z,1000.45
2017-06-14T03:58:29.453Z,1000.47
2017-06-14T03:59:39.821Z,1000.49
2017-06-14T04:00:49.860Z,1000.5
2017-06-14T04:01:59.638Z,1000.57
2017-06-14T04:03:09.679Z,1000.56
2017-06-14T04:04:19.723Z,1000.55
2017-06-14T04:05:30.094Z,1000.57
2017-06-14T04:06:40.454Z,1000.58
2017-06-14T04:07:50.846Z,1000.55
2017-06-14T04:09:00.559Z,1000.55
2017-06-14T04:10:10.896Z,1000.6
2017-06-14T04:11:20.942Z,1000.57
2017-06-14T04:12:31.295Z,1000.59
2017-06-14T04:13:41.385Z,1000.64
2017-06-14T04:14:51.766Z,1000.69
2017-06-14T04:16:02.117Z,1000.69
2017-06-14T04:17:12.466Z,1000.72
2017-06-14T04:18:22.816Z,1000.73
2017-06-14T04:19:33.176Z,1000.72
2017-06-14T04:20:43.520Z,1000.75
2017-06-14T04:21:53.863Z,1000.74
2017-06-14T04:23:03.593Z,1000.77
2017-06-14T04:24:13.923Z,1000.77
2017-06-14T04:25:24.328Z,1000.76
2017-06-14T04:26:34.356Z,1000.82
2017-06-14T04:27:44.396Z,1000.81
2017-06-14T04:28:54.729Z,1000.89
2017-06-14T04:30:05.085Z,1000.85
2017-06-14T04:31:15.128Z,1000.86
2017-06-14T04:32:25.471Z,1000.84
2017-06-14T04:33:35.512Z,1000.83
2017-06-14T04:34:45.854Z,1000.85
2017-06-14T04:35:55.575Z,1000.88
2017-06-14T04:37:05.658Z,1000.9
2017-06-14T04:38:15.702Z,1000.91
2017-06-14T04:39:26.043Z,1000.94
2017-06-14T04:40:36.391Z,1000.94
2017-06-14T04:41:46.132Z,1000.99
2017-06-14T04:42:56.523Z,1001
2017-06-14T04:44:06.856Z,1000.91
2017-06-14T04:45:17.210Z,1000.95
2017-06-14T04:46:27.244Z,1001.03
2017-06-14T04:47:37.337Z,1001.02
2017-06-14T04:48:47.682Z,1001.01
2017-06-14T04:49:58.033Z,1001.05
2017-06-14T04:51:08.391Z,1001.08
2017-06-14T04:52:18.447Z,1001.07
2017-06-14T04:53:28.791Z,1001.19
2017-06-14T04:54:39.207Z,1001.08
2017-06-14T04:55:49.545Z,1001.06
2017-06-14T04:56:59.895Z,1001.1
2017-06-14T04:58:10.237Z,1001.13
2017-06-14T04:59:20.588Z,1001.13
2017-06-14T05:00:30.996Z,1001.13
2017-06-14T05:01:41.034Z,1001.1
2017-06-14T05:02:51.376Z,1001.1
2017-06-14T05:04:01.412Z,1001.09
2017-06-14T05:05:11.459Z,1001.14
2017-06-14T05:06:21.495Z,1001.17
2017-06-14T05:07:31.846Z,1001.11
2017-06-14T05:08:41.549Z,1001.14
2017-06-14T05:09:51.899Z,1001.1
2017-06-14T05:11:02.265Z,1001.24
2017-06-14T05:12:12.289Z,1001.14
2017-06-14T05:13:22.321Z,1001.3
2017-06-14T05:14:32.666Z,1001.21
2017-06-14T05:15:42.691Z,1001.21
2017-06-14T05:16:52.723Z,1001.26
2017-06-14T05:18:03.118Z,1001.13
2017-06-14T05:19:13.144Z,1001.15
2017-06-14T05:20:23.179Z,1001.12
2017-06-14T05:21:33.522Z,1001.11
2017-06-14T05:22:43.897Z,1001.11
2017-06-14T05:23:54.297Z,1001.12
2017-06-14T05:25:04.660Z,1001.17
2017-06-14T05:26:14.711Z,1001.46
2017-06-14T05:27:25.067Z,1001.26
2017-06-14T05:28:35.127Z,1001.29
2017-06-14T05:29:45.535Z,1001.54
2017-06-14T05:30:55.882Z,1001.6
2017-06-14T05:32:06.246Z,1001.6
2017-06-14T05:33:15.956Z,1001.63
2017-06-14T05:34:25.673Z,1001.63
2017-06-14T05:35:36.030Z,1001.59
2017-06-14T05:36:45.771Z,1001.59
2017-06-14T05:37:56.114Z,1001.48
2017-06-14T05:39:06.484Z,1001.57
2017-06-14T05:40:16.509Z,1001.64
2017-06-14T05:41:26.858Z,1001.68
2017-06-14T05:42:37.196Z,1001.64
2017-06-14T05:43:47.561Z,1001.65
2017-06-14T05:44:57.933Z,1001.66
2017-06-14T05:46:08.271Z,1001.61
2017-06-14T05:47:18.663Z,1001.68
2017-06-14T05:48:29.011Z,1001.61
2017-06-14T05:49:39.366Z,1001.6
2017-06-14T05:50:49.711Z,1001.59
2017-06-14T05:52:00.070Z,1001.43
2017-06-14T05:53:10.167Z,1001.46
2017-06-14T05:54:20.498Z,1001.64
2017-06-14T05:55:30.220Z,1001.6
2017-06-14T05:56:40.595Z,1001.62
2017-06-14T05:57:50.962Z,1001.62
2017-06-14T05:59:01.355Z,1001.66
2017-06-14T06:00:11.406Z,1001.43
2017-06-14T06:01:21.754Z,1001.73
2017-06-14T06:02:32.121Z,1001.57
2017-06-14T06:03:42.491Z,1001.62
2017-06-14T06:04:52.574Z,1001.62
2017-06-14T06:06:02.607Z,1001.61
2017-06-14T06:07:12.948Z,1001.61
2017-06-14T06:08:23.294Z,1001.64
2017-06-14T06:09:33.660Z,1001.6
2017-06-14T06:10:44.020Z,1001.59
2017-06-14T06:11:54.379Z,1001.57
2017-06-14T06:13:04.726Z,1001.55
2017-06-14T06:14:14.773Z,1001.81
2017-06-14T06:15:25.130Z,1002.07
2017-06-14T06:16:35.228Z,1002.01
2017-06-14T06:17:45.258Z,1001.9
2017-06-14T06:18:55.282Z,1001.77
2017-06-14T06:20:05.628Z,1001.72
2017-06-14T06:21:15.978Z,1001.59
2017-06-14T06:22:26.369Z,1001.73
2017-06-14T06:23:36.719Z,1001.75
2017-06-14T06:24:47.064Z,1001.68
2017-06-14T06:25:57.400Z,1001.66
2017-06-14T06:27:07.462Z,1001.65
2017-06-14T06:28:17.870Z,1001.58
2017-06-14T06:29:28.003Z,1001.55
2017-06-14T06:30:38.860Z,1001.5
2017-06-14T06:31:49.292Z,1001.55
2017-06-14T06:32:59.659Z,1001.58
2017-06-14T06:34:09.997Z,1001.53
2017-06-14T06:35:20.359Z,1001.47
2017-06-14T06:36:30.725Z,1001.49
2017-06-14T06:37:41.124Z,1001.48
2017-06-14T06:38:51.163Z,1001.53
2017-06-14T06:40:01.204Z,1001.52
2017-06-14T06:41:10.958Z,1001.48
2017-06-14T06:42:21.326Z,1001.5
2017-06-14T06:43:31.682Z,1001.46
2017-06-14T06:44:42.035Z,1001.36
2017-06-14T06:45:52.122Z,1001.35
2017-06-14T06:47:02.172Z,1001.33
2017-06-14T06:48:12.210Z,1001.37
2017-06-14T06:49:22.581Z,1001.31
2017-06-14T06:50:32.946Z,1001.32
2017-06-14T06:51:43.307Z,1001.32
2017-06-14T06:52:53.338Z,1001.21
2017-06-14T06:54:03.687Z,1001.21
2017-06-14T06:55:14.048Z,1001.22
2017-06-14T06:56:23.782Z,1001.28
2017-06-14T06:57:34.184Z,1001.27
2017-06-14T06:58:44.225Z,1001.31
2017-06-14T06:59:54.566Z,1001.27
2017-06-14T07:01:04.929Z,1001.33
2017-06-14T07:02:15.277Z,1001.33
2017-06-14T07:03:25.687Z,1001.29
2017-06-14T07:04:35.722Z,1001.3
2017-06-14T07:05:45.874Z,1001.28
2017-06-14T07:06:56.258Z,1001.24
2017-06-14T07:08:06.625Z,1001.27
2017-06-14T07:09:16.716Z,1001.26
2017-06-14T07:10:27.064Z,1001.32
2017-06-14T07:11:37.091Z,1001.27
2017-06-14T07:12:47.436Z,1001.25
2017-06-14T07:13:57.496Z,1001.28
2017-06-14T07:15:07.896Z,1001.3
2017-06-14T07:16:18.834Z,1001.25
2017-06-14T07:17:30.884Z,1001.2
2017-06-14T07:18:40.952Z,1001.2
2017-06-14T07:19:50.683Z,1001.3
2017-06-14T07:21:00.763Z,1001.28
2017-06-14T07:22:11.121Z,1001.25
2017-06-14T07:23:21.477Z,1001.24
2017-06-14T07:24:31.828Z,1001.3
2017-06-14T07:25:42.210Z,1001.22
2017-06-14T07:26:52.612Z,1001.22
2017-06-14T07:28:02.649Z,1001.2
2017-06-14T07:29:12.992Z,1001.27
2017-06-14T07:30:23.034Z,1001.27
2017-06-14T07:31:33.398Z,1001.25
2017-06-14T07:32:43.508Z,1001.26
2017-06-14T07:33:53.542Z,1001.29
2017-06-14T07:35:03.892Z,1001.31
2017-06-14T07:36:13.932Z,1001.26
2017-06-14T07:37:24.299Z,1001.34
2017-06-14T07:38:34.333Z,1001.3
2017-06-14T07:39:44.693Z,1001.28
2017-06-14T07:40:55.044Z,1001.31
2017-06-14T07:42:05.396Z,1001.23
2017-06-14T07:43:15.439Z,1001.28
2017-06-14T07:44:25.797Z,1001.3
2017-06-14T07:45:36.156Z,1001.26
2017-06-14T07:46:46.195Z,1001.26
2017-06-14T07:47:56.546Z,1001.22
2017-06-14T07:49:06.260Z,1001.3
2017-06-14T07:50:16.666Z,1001.16
2017-06-14T07:51:27.020Z,1001.19
2017-06-14T07:52:37.389Z,1001.15
2017-06-14T07:53:47.773Z,1001.17
2017-06-14T07:54:58.127Z,1001.15
2017-06-14T07:56:08.553Z,1001.16
2017-06-14T07:57:18.917Z,1001.23
2017-06-14T07:58:29.285Z,1001.21
2017-06-14T07:59:39.648Z,1001.27
2017-06-14T08:00:49.401Z,1001.25
2017-06-14T08:01:59.497Z,1001.15
2017-06-14T08:03:09.891Z,1001.16
2017-06-14T08:04:20.261Z,1001.15
2017-06-14T08:05:30.611Z,1001.16
2017-06-14T08:06:40.961Z,1001.13
2017-06-14T08:07:51.375Z,1001.08
2017-06-14T08:09:01.728Z,1001.06
2017-06-14T08:10:12.083Z,1001.12
2017-06-14T08:11:22.437Z,1001.09
2017-06-14T08:12:32.798Z,1001.17
2017-06-14T08:13:42.572Z,1001.08
2017-06-14T08:14:52.610Z,1001.12
2017-06-14T08:16:02.962Z,1000.98
2017-06-14T08:17:13.298Z,1001.01
2017-06-14T08:18:23.655Z,1000.9
2017-06-14T08:19:34.058Z,1000.97
2017-06-14T08:20:44.098Z,1000.92
2017-06-14T08:21:54.445Z,1000.9
2017-06-14T08:23:04.789Z,1000.9
2017-06-14T08:24:14.825Z,1000.95
2017-06-14T08:25:25.222Z,1000.96
2017-06-14T08:26:35.568Z,1000.93
2017-06-14T08:27:45.915Z,1000.87
2017-06-14T08:28:56.259Z,1000.85
2017-06-14T08:30:06.285Z,1000.94
2017-06-14T08:31:16.384Z,1000.94
2017-06-14T08:32:26.729Z,1000.87
2017-06-14T08:33:37.077Z,1000.87
2017-06-14T08:34:47.111Z,1000.84
2017-06-14T08:35:56.847Z,1000.87
2017-06-14T08:37:07.240Z,1000.87
2017-06-14T08:38:17.276Z,1000.84
2017-06-14T08:39:27.309Z,1000.78
2017-06-14T08:40:37.640Z,1000.78
2017-06-14T08:41:47.988Z,1000.76
2017-06-14T08:42:58.492Z,1000.84
2017-06-14T08:44:08.846Z,1000.77
2017-06-14T08:45:19.196Z,1000.75
2017-06-14T08:46:29.568Z,1000.75
2017-06-14T08:47:39.912Z,1000.73
2017-06-14T08:48:50.268Z,1000.73
2017-06-14T08:50:00.623Z,1000.69
2017-06-14T08:51:10.651Z,1000.7
2017-06-14T08:52:20.698Z,1000.72
2017-06-14T08:53:31.048Z,1000.68
2017-06-14T08:54:41.461Z,1000.68
2017-06-14T08:55:51.815Z,1000.65
2017-06-14T08:57:01.845Z,1000.74
2017-06-14T08:58:11.906Z,1000.62
2017-06-14T08:59:22.270Z,1000.58
2017-06-14T09:00:32.697Z,1000.61
2017-06-14T09:01:43.100Z,1000.54
2017-06-14T09:02:53.472Z,1000.54
2017-06-14T09:04:02.588Z,1000.57
2017-06-14T09:05:12.957Z,1000.58
2017-06-14T09:06:23.374Z,1000.62
2017-06-14T09:07:33.719Z,1000.56
2017-06-14T09:08:44.075Z,1000.56
2017-06-14T09:09:54.109Z,1000.61
2017-06-14T09:11:04.445Z,1000.58
2017-06-14T09:12:14.880Z,1000.64
2017-06-14T09:13:24.961Z,1000.55
2017-06-14T09:14:35.012Z,1000.55
2017-06-14T09:15:45.357Z,1000.55
2017-06-14T09:16:55.068Z,1000.57
2017-06-14T09:18:05.481Z,1000.61
2017-06-14T09:19:15.522Z,1000.63
2017-06-14T09:20:25.890Z,1000.53
2017-06-14T09:21:36.176Z,1000.6
2017-06-14T09:22:46.532Z,1000.57
2017-06-14T09:23:56.948Z,1000.68
2017-06-14T09:25:07.013Z,1000.62
2017-06-14T09:26:17.068Z,1000.53
2017-06-14T09:27:27.421Z,1000.55
2017-06-14T09:28:37.772Z,1000.49
2017-06-14T09:29:47.565Z,1000.57
2017-06-14T09:30:58.011Z,1000.56
2017-06-14T09:32:08.366Z,1000.54
2017-06-14T09:33:18.433Z,1000.48
2017-06-14T09:34:28.484Z,1000.54
2017-06-14T09:35:38.844Z,1000.48
2017-06-14T09:36:49.205Z,1000.6
2017-06-14T09:37:59.591Z,1000.55
2017-06-14T09:39:09.636Z,1000.53
2017-06-14T09:40:19.672Z,1000.56
2017-06-14T09:41:30.094Z,1000.61
2017-06-14T09:42:40.468Z,1000.61
2017-06-14T09:43:50.820Z,1000.59
2017-06-14T09:45:01.178Z,1000.55
2017-06-14T09:46:11.538Z,1000.53
2017-06-14T09:47:21.641Z,1000.53
2017-06-14T09:48:31.998Z,1000.5
2017-06-14T09:49:42.046Z,1000.55
2017-06-14T09:50:52.406Z,1000.48
2017-06-14T09:52:02.439Z,1000.43
2017-06-14T09:53:12.853Z,1000.38
2017-06-14T09:54:23.200Z,1000.44
2017-06-14T09:55:33.234Z,1000.4
2017-06-14T09:56:43.284Z,1000.34
2017-06-14T09:57:53.646Z,1000.35
2017-06-14T09:59:04.059Z,1000.37
2017-06-14T10:00:14.411Z,1000.42
2017-06-14T10:01:24.780Z,1000.43
2017-06-14T10:02:34.820Z,1000.36
2017-06-14T10:03:44.865Z,1000.36
2017-06-14T10:04:55.226Z,1000.28
2017-06-14T10:06:05.626Z,1000.33
2017-06-14T10:07:15.685Z,1000.34
2017-06-14T10:08:26.034Z,1000.34
2017-06-14T10:09:36.076Z,1000.5
2017-06-14T10:10:46.429Z,1000.38
2017-06-14T10:11:56.836Z,1000.36
2017-06-14T10:13:07.190Z,1000.37
2017-06-14T10:14:17.223Z,1000.44
2017-06-14T10:15:27.563Z,1000.43
2017-06-14T10:16:37.293Z,1000.46
2017-06-14T10:17:47.661Z,1000.43
2017-06-14T10:18:58.015Z,1000.4
2017-06-14T10:20:08.383Z,1000.36
2017-06-14T10:21:18.723Z,1000.37
2017-06-14T10:22:29.083Z,1000.37
2017-06-14T10:23:39.169Z,1000.33
2017-06-14T10:24:49.521Z,1000.32
2017-06-14T10:25:59.879Z,1000.3
2017-06-14T10:27:10.233Z,1000.21
2017-06-14T10:28:20.603Z,1000.38
2017-06-14T10:29:30.683Z,1000.26
2017-06-14T10:30:41.052Z,1000.41
2017-06-14T10:31:50.457Z,1000.37
2017-06-14T10:33:00.807Z,1000.42
2017-06-14T10:34:10.541Z,1000.49
2017-06-14T10:35:20.639Z,1000.37
2017-06-14T10:36:30.997Z,1000.27
2017-06-14T10:37:41.032Z,1000.27
2017-06-14T10:38:51.372Z,1000.26
2017-06-14T10:40:01.416Z,1000.22
2017-06-14T10:41:11.766Z,1000.19
2017-06-14T10:42:21.804Z,1000.18
2017-06-14T10:43:32.157Z,1000.35
2017-06-14T10:44:42.512Z,1000.24
2017-06-14T10:45:52.876Z,1000.35
2017-06-14T10:47:03.271Z,1000.22
2017-06-14T10:48:13.627Z,1000.22
2017-06-14T10:49:23.660Z,1000.28
2017-06-14T10:50:34.022Z,1000.2
2017-06-14T10:51:44.377Z,1000.24
2017-06-14T10:52:54.981Z,1000.16
2017-06-14T10:54:05.038Z,1000.2
2017-06-14T10:55:15.063Z,1000.16
2017-06-14T10:56:25.115Z,1000.07
2017-06-14T10:57:35.462Z,1000.16
2017-06-14T10:58:45.873Z,1000.16
2017-06-14T10:59:56.228Z,1000.15
2017-06-14T11:01:06.267Z,1000.13
2017-06-14T11:02:16.647Z,1000.16
2017-06-14T11:03:26.696Z,1000.05
2017-06-14T11:04:37.088Z,1000.15
2017-06-14T11:05:47.451Z,1000.18
2017-06-14T11:06:57.812Z,1000.19
2017-06-14T11:08:08.159Z,1000.16
2017-06-14T11:09:18.209Z,1000.13
2017-06-14T11:10:28.306Z,1000.18
2017-06-14T11:11:38.688Z,1000.24
2017-06-14T11:12:49.059Z,1000.18
2017-06-14T11:13:59.423Z,1000.17
2017-06-14T11:15:09.812Z,1000.19
2017-06-14T11:16:20.206Z,1000.13
2017-06-14T11:17:30.557Z,1000.21
2017-06-14T11:18:40.598Z,1000.09
2017-06-14T11:19:50.642Z,1000.07
2017-06-14T11:21:01.012Z,1000.15
2017-06-14T11:22:11.122Z,1000.1
2017-06-14T11:23:21.495Z,1000.07
2017-06-14T11:24:31.561Z,1000
2017-06-14T11:25:41.616Z,1000.06
2017-06-14T11:26:51.951Z,1000.02
2017-06-14T11:28:02.044Z,1000.09
2017-06-14T11:29:12.424Z,1000.13
2017-06-14T11:30:22.777Z,1000.06
2017-06-14T11:31:32.531Z,1000.06
2017-06-14T11:32:42.885Z,999.94
2017-06-14T11:33:53.249Z,999.97
2017-06-14T11:35:03.613Z,999.96
2017-06-14T11:36:13.979Z,999.94
2017-06-14T11:37:24.041Z,999.91
2017-06-14T11:38:34.417Z,999.89
2017-06-14T11:39:44.834Z,999.87
2017-06-14T11:40:55.214Z,999.85
2017-06-14T11:42:04.945Z,999.88
2017-06-14T11:43:15.007Z,999.91
2017-06-14T11:44:25.376Z,999.86
2017-06-14T11:45:35.475Z,999.85
2017-06-14T11:46:45.862Z,999.88
2017-06-14T11:47:55.903Z,999.86
2017-06-14T11:49:06.272Z,999.88
2017-06-14T11:50:16.027Z,999.73
2017-06-14T11:51:26.479Z,999.82
2017-06-14T11:52:36.516Z,999.76
2017-06-14T11:53:46.865Z,999.83
2017-06-14T11:54:56.906Z,999.77
2017-06-14T11:56:07.284Z,999.77
2017-06-14T11:57:17.704Z,999.74
2017-06-14T11:58:28.082Z,999.77
2017-06-14T11:59:38.471Z,999.76
2017-06-14T12:00:48.527Z,999.76
2017-06-14T12:01:58.897Z,999.8
2017-06-14T12:03:09.325Z,999.66
2017-06-14T12:04:19.684Z,999.73
2017-06-14T12:05:30.052Z,999.64
2017-06-14T12:06:40.407Z,999.76
2017-06-14T12:07:50.763Z,999.75
2017-06-14T12:09:01.125Z,999.71
2017-06-14T12:10:11.489Z,999.63
2017-06-14T12:11:21.552Z,999.61
2017-06-14T12:12:31.615Z,999.65
2017-06-14T12:13:41.657Z,999.67
2017-06-14T12:14:52.064Z,999.7
2017-06-14T12:16:02.432Z,999.66
2017-06-14T12:17:12.497Z,999.63
2017-06-14T12:18:22.843Z,999.64
2017-06-14T12:19:32.895Z,999.66
2017-06-14T12:20:43.300Z,999.64
2017-06-14T12:21:53.688Z,999.51
2017-06-14T12:23:04.095Z,999.66
2017-06-14T12:24:14.468Z,999.54
2017-06-14T12:25:24.846Z,999.55
2017-06-14T12:26:34.959Z,999.5
2017-06-14T12:27:45.314Z,999.44
2017-06-14T12:28:55.360Z,999.53
2017-06-14T12:30:05.720Z,999.62
2017-06-14T12:31:16.101Z,999.63
2017-06-14T12:32:26.505Z,999.67
2017-06-14T12:33:36.574Z,999.59
2017-06-14T12:34:46.951Z,999.55
2017-06-14T12:35:56.996Z,999.54
2017-06-14T12:37:07.029Z,999.53
2017-06-14T12:38:17.460Z,999.57
2017-06-14T12:39:27.814Z,999.66
2017-06-14T12:40:38.181Z,999.56
2017-06-14T12:41:48.544Z,999.58
2017-06-14T12:42:58.634Z,999.61
2017-06-14T12:44:09.058Z,999.65
2017-06-14T12:45:19.442Z,999.55
2017-06-14T12:46:29.806Z,999.55
2017-06-14T12:47:40.180Z,999.53
2017-06-14T12:48:50.219Z,999.54
2017-06-14T12:50:00.567Z,999.55
2017-06-14T12:51:10.917Z,999.55
2017-06-14T12:52:21.291Z,999.57
2017-06-14T12:53:31.356Z,999.54
2017-06-14T12:54:41.820Z,999.4
2017-06-14T12:55:52.233Z,999.48
2017-06-14T12:57:02.297Z,999.56
2017-06-14T12:58:12.685Z,999.6
2017-06-14T12:59:22.737Z,999.44
2017-06-14T13:00:32.775Z,999.45
2017-06-14T13:01:42.930Z,999.48
2017-06-14T13:02:53.301Z,999.46
2017-06-14T13:04:03.650Z,999.46
2017-06-14T13:05:13.704Z,999.4
2017-06-14T13:06:23.738Z,999.44
2017-06-14T13:07:34.154Z,999.47
2017-06-14T13:08:44.250Z,999.43
2017-06-14T13:09:54.623Z,999.39
2017-06-14T13:11:04.345Z,999.44
2017-06-14T13:12:14.703Z,999.42
2017-06-14T13:13:25.134Z,999.33
2017-06-14T13:14:35.171Z,999.4
2017-06-14T13:15:45.537Z,999.29
2017-06-14T13:16:55.893Z,999.29
2017-06-14T13:18:06.256Z,999.37
2017-06-14T13:19:16.356Z,999.36
2017-06-14T13:20:26.097Z,999.29
2017-06-14T13:21:36.468Z,999.24
2017-06-14T13:22:46.820Z,999.24
2017-06-14T13:23:57.207Z,999.23
2017-06-14T13:25:07.623Z,999.17
2017-06-14T13:26:17.969Z,999.15
2017-06-14T13:27:28.334Z,999.12
2017-06-14T13:28:38.698Z,999.1
2017-06-14T13:29:49.058Z,999.04
2017-06-14T13:30:59.478Z,999.07
2017-06-14T13:32:09.856Z,999.05
2017-06-14T13:33:20.259Z,999.11
2017-06-14T13:34:30.646Z,999.11
2017-06-14T13:35:40.998Z,999.08
2017-06-14T13:36:51.404Z,999.08
2017-06-14T13:38:01.460Z,999.13
2017-06-14T13:39:11.819Z,999.04
2017-06-14T13:40:21.237Z,999.02
2017-06-14T13:41:31.665Z,999.02
2017-06-14T13:42:41.788Z,998.95
2017-06-14T13:43:52.163Z,998.94
2017-06-14T13:45:02.546Z,998.96
2017-06-14T13:46:12.976Z,998.95
2017-06-14T13:47:23.335Z,998.99
2017-06-14T13:48:33.763Z,998.91
2017-06-14T13:49:44.927Z,998.94
2017-06-14T13:50:55.276Z,998.86
2017-06-14T13:52:05.316Z,998.89
2017-06-14T13:53:15.756Z,998.84
2017-06-14T13:54:26.356Z,998.82
2017-06-14T13:55:37.514Z,998.9
2017-06-14T13:56:49.984Z,998.86
2017-06-14T13:58:00.358Z,998.8
2017-06-14T13:59:10.718Z,998.79
2017-06-14T14:00:21.078Z,998.8
2017-06-14T14:01:31.449Z,998.81
2017-06-14T14:02:41.807Z,998.79
2017-06-14T14:03:51.236Z,998.76
2017-06-14T14:05:01.603Z,998.82
2017-06-14T14:06:11.409Z,998.87
2017-06-14T14:07:21.794Z,998.83
2017-06-14T14:08:32.151Z,998.81
2017-06-14T14:09:42.212Z,998.78
2017-06-14T14:10:52.585Z,998.78
2017-06-14T14:12:02.994Z,998.78
2017-06-14T14:13:13.019Z,998.86
2017-06-14T14:14:23.070Z,998.77
2017-06-14T14:15:33.423Z,998.71
2017-06-14T14:16:43.801Z,998.72
2017-06-14T14:17:54.201Z,998.77
2017-06-14T14:19:04.543Z,998.76
2017-06-14T14:20:14.275Z,998.77
2017-06-14T14:21:24.622Z,998.8
2017-06-14T14:22:34.661Z,998.78
2017-06-14T14:23:45.437Z,998.78
2017-06-14T14:24:55.781Z,998.77
2017-06-14T14:26:06.139Z,998.76
2017-06-14T14:27:16.492Z,998.78
2017-06-14T14:28:26.885Z,998.72
2017-06-14T14:29:37.020Z,998.68
2017-06-14T14:30:47.064Z,998.73
2017-06-14T14:31:57.100Z,998.7
2017-06-14T14:33:07.454Z,998.7
2017-06-14T14:34:17.815Z,998.75
2017-06-14T14:35:27.902Z,998.77
2017-06-14T14:36:37.943Z,998.74
2017-06-14T14:37:48.387Z,998.68
2017-06-14T14:38:58.425Z,998.68
2017-06-14T14:40:08.780Z,998.64
2017-06-14T14:41:19.204Z,998.67
2017-06-14T14:42:29.255Z,998.65
2017-06-14T14:43:39.025Z,998.72
2017-06-14T14:44:49.627Z,998.7
2017-06-14T14:46:03.338Z,998.69
2017-06-14T14:47:17.039Z,998.63
2017-06-14T14:48:30.817Z,998.65
2017-06-14T14:49:44.956Z,998.62
2017-06-14T14:50:58.908Z,998.62
2017-06-14T14:52:11.620Z,998.61
2017-06-14T14:53:24.878Z,998.58
2017-06-14T14:54:36.150Z,998.56